KMRC

Details ICAO KMRC
Name MAURY CO
Region United States
Timezone America/Chicago (UTC-6.0)
Plans Departing 3
Arriving 1
Stats Elevation 681 ft / 208 m (AMSL)
Location 35.553842° -87.178507°
Runways 2
Magnetic Variation 3.410° W
Sunrise 2017-12-17 12:53:36 UTC / 2017-12-17 06:53:36 Local
Sunset 2017-12-17 22:39:02 UTC / 2017-12-17 16:39:02 Local
Advertisement - Login to hide

Runways

ID Width Length Bearing (true) Bearing (mag) Surface Threshold Offset Overrun Length
06 100 ft / 30 m 6,001 ft / 1,829 m 53.57° 56.98° Asphalt 0 ft / 0 m 0 ft / 0 m
17 200 ft / 61 m 2,005 ft / 611 m 170.06° 173.47° Grass 0 ft / 0 m 0 ft / 0 m
24 100 ft / 30 m 6,001 ft / 1,829 m 233.58° 236.99° Asphalt 0 ft / 0 m 0 ft / 0 m
35 200 ft / 61 m 2,005 ft / 611 m 350.06° 353.47° Grass 0 ft / 0 m 0 ft / 0 m

Approach Navaids

Runway Type Ident Frequency Range Bearing (true) Bearing (mag) Slope Elevation
24 Localiser IMRC 108.70 MHz 18 nm / 33 km 233.57° 236.98° - 681 ft / 208 m (AMSL)

Map

Weather


0- 5 10 15 20 25 30 35+ Temperature / ° C

Clouds and Precipitation
Forecast for 2017-12-17 18:00 UTC. Updated an hour ago

Ground ~20,000 ft ~40,000 ft Winds

METAR

KMRC 171815Z AUTO 00000KT 10SM OVC014 08/06 A3008 RMK A01

TAF

Not found

Frequencies

Recorded 128.62 MHz AWOS 3
Unicom 122.80 MHz CTAF/UNICOM
Warning: Do not use this data for real-world aviation or navigation. No guarantee of current accuracy is given.